sensor_id;sensor_type;location;lat;lon;timestamp;temperature;humidity
10417;DHT22;62605;49.432;8.680;2023-04-23T00:00:30;13.00;99.90
10417;DHT22;62605;49.432;8.680;2023-04-23T00:02:57;12.90;99.90
10417;DHT22;62605;49.432;8.680;2023-04-23T00:05:27;12.80;99.90
10417;DHT22;62605;49.432;8.680;2023-04-23T00:07:58;12.80;99.90
10417;DHT22;62605;49.432;8.680;2023-04-23T00:10:38;12.80;99.90
10417;DHT22;62605;49.432;8.680;2023-04-23T00:13:19;12.70;99.90
10417;DHT22;62605;49.432;8.680;2023-04-23T00:18:19;12.60;99.90
10417;DHT22;62605;49.432;8.680;2023-04-23T00:20:49;12.60;99.90
10417;DHT22;62605;49.432;8.680;2023-04-23T00:23:18;12.60;99.90
10417;DHT22;62605;49.432;8.680;2023-04-23T00:26:00;12.60;99.90
10417;DHT22;62605;49.432;8.680;2023-04-23T00:28:28;12.50;99.90
10417;DHT22;62605;49.432;8.680;2023-04-23T00:30:56;12.50;99.90
10417;DHT22;62605;49.432;8.680;2023-04-23T00:33:24;12.40;99.90
10417;DHT22;62605;49.432;8.680;2023-04-23T00:35:53;12.50;99.90
10417;DHT22;62605;49.432;8.680;2023-04-23T00:38:21;12.50;99.90
10417;DHT22;62605;49.432;8.680;2023-04-23T00:40:59;12.40;99.90
10417;DHT22;62605;49.432;8.680;2023-04-23T00:43:28;12.50;99.90
10417;DHT22;62605;49.432;8.680;2023-04-23T00:45:56;12.50;99.90
10417;DHT22;62605;49.432;8.680;2023-04-23T00:48:24;12.50;99.90
10417;DHT22;62605;49.432;8.680;2023-04-23T00:50:57;12.40;99.90
10417;DHT22;62605;49.432;8.680;2023-04-23T00:53:26;12.40;99.90
10417;DHT22;62605;49.432;8.680;2023-04-23T00:55:54;12.40;99.90
10417;DHT22;62605;49.432;8.680;2023-04-23T00:58:41;12.40;99.90
10417;DHT22;62605;49.432;8.680;2023-04-23T01:01:23;12.30;99.90
10417;DHT22;62605;49.432;8.680;2023-04-23T01:03:51;12.30;99.90
10417;DHT22;62605;49.432;8.680;2023-04-23T01:06:21;12.40;99.90
10417;DHT22;62605;49.432;8.680;2023-04-23T01:08:54;12.20;99.90
10417;DHT22;62605;49.432;8.680;2023-04-23T01:11:22;12.30;99.90
10417;DHT22;62605;49.432;8.680;2023-04-23T01:14:06;12.30;99.90
10417;DHT22;62605;49.432;8.680;2023-04-23T01:16:35;12.30;99.90
10417;DHT22;62605;49.432;8.680;2023-04-23T01:19:03;12.30;99.90
10417;DHT22;62605;49.432;8.680;2023-04-23T01:21:37;12.30;99.90
10417;DHT22;62605;49.432;8.680;2023-04-23T01:24:24;12.30;99.90
10417;DHT22;62605;49.432;8.680;2023-04-23T01:26:54;12.40;99.90
10417;DHT22;62605;49.432;8.680;2023-04-23T01:29:23;12.30;99.90
10417;DHT22;62605;49.432;8.680;2023-04-23T01:32:01;12.40;99.90
10417;DHT22;62605;49.432;8.680;2023-04-23T01:34:32;12.30;99.90
10417;DHT22;62605;49.432;8.680;2023-04-23T01:37:02;12.30;99.90
10417;DHT22;62605;49.432;8.680;2023-04-23T01:39:33;12.30;99.90
10417;DHT22;62605;49.432;8.680;2023-04-23T01:42:05;12.30;99.90
10417;DHT22;62605;49.432;8.680;2023-04-23T01:44:33;12.30;99.90
10417;DHT22;62605;49.432;8.680;2023-04-23T01:47:01;12.30;99.90
10417;DHT22;62605;49.432;8.680;2023-04-23T01:49:31;12.40;99.90
10417;DHT22;62605;49.432;8.680;2023-04-23T01:51:58;12.30;99.90
10417;DHT22;62605;49.432;8.680;2023-04-23T01:54:27;12.30;99.90
10417;DHT22;62605;49.432;8.680;2023-04-23T01:56:58;12.30;99.90
10417;DHT22;62605;49.432;8.680;2023-04-23T01:59:26;12.30;99.90
10417;DHT22;62605;49.432;8.680;2023-04-23T02:02:10;12.30;99.90
10417;DHT22;62605;49.432;8.680;2023-04-23T02:04:40;12.30;99.90
10417;DHT22;62605;49.432;8.680;2023-04-23T02:07:10;12.30;99.90
10417;DHT22;62605;49.432;8.680;2023-04-23T02:09:47;12.30;99.90
10417;DHT22;62605;49.432;8.680;2023-04-23T02:12:16;12.20;99.90
10417;DHT22;62605;49.432;8.680;2023-04-23T02:14:44;12.30;99.90
10417;DHT22;62605;49.432;8.680;2023-04-23T02:17:12;12.30;99.90
10417;DHT22;62605;49.432;8.680;2023-04-23T02:19:43;12.40;99.90
10417;DHT22;62605;49.432;8.680;2023-04-23T02:22:11;12.30;99.90
10417;DHT22;62605;49.432;8.680;2023-04-23T02:24:40;12.30;99.90
10417;DHT22;62605;49.432;8.680;2023-04-23T02:27:12;12.30;99.90
10417;DHT22;62605;49.432;8.680;2023-04-23T02:29:43;12.30;99.90
10417;DHT22;62605;49.432;8.680;2023-04-23T02:32:11;12.30;99.90
10417;DHT22;62605;49.432;8.680;2023-04-23T02:34:38;12.20;99.90
10417;DHT22;62605;49.432;8.680;2023-04-23T02:37:06;12.30;99.90
10417;DHT22;62605;49.432;8.680;2023-04-23T02:39:33;12.30;99.90
10417;DHT22;62605;49.432;8.680;2023-04-23T02:42:03;12.30;99.90
10417;DHT22;62605;49.432;8.680;2023-04-23T02:44:31;12.30;99.90
10417;DHT22;62605;49.432;8.680;2023-04-23T02:47:01;12.20;99.90
10417;DHT22;62605;49.432;8.680;2023-04-23T02:49:29;12.30;99.90
10417;DHT22;62605;49.432;8.680;2023-04-23T02:51:57;12.30;99.90
10417;DHT22;62605;49.432;8.680;2023-04-23T02:54:25;12.20;99.90
10417;DHT22;62605;49.432;8.680;2023-04-23T02:56:52;12.30;99.90
10417;DHT22;62605;49.432;8.680;2023-04-23T02:59:19;12.30;99.90
10417;DHT22;62605;49.432;8.680;2023-04-23T03:01:47;12.30;99.90
10417;DHT22;62605;49.432;8.680;2023-04-23T03:04:16;12.30;99.90
10417;DHT22;62605;49.432;8.680;2023-04-23T03:06:44;12.30;99.90
10417;DHT22;62605;49.432;8.680;2023-04-23T03:09:11;12.20;99.90
10417;DHT22;62605;49.432;8.680;2023-04-23T03:11:39;12.20;99.90
10417;DHT22;62605;49.432;8.680;2023-04-23T03:14:06;12.30;99.90
10417;DHT22;62605;49.432;8.680;2023-04-23T03:16:36;12.20;99.90
10417;DHT22;62605;49.432;8.680;2023-04-23T03:19:03;12.30;99.90
10417;DHT22;62605;49.432;8.680;2023-04-23T03:21:32;12.30;99.90
10417;DHT22;62605;49.432;8.680;2023-04-23T03:24:00;12.30;99.90
10417;DHT22;62605;49.432;8.680;2023-04-23T03:26:28;12.20;99.90
10417;DHT22;62605;49.432;8.680;2023-04-23T03:28:56;12.20;99.90
10417;DHT22;62605;49.432;8.680;2023-04-23T03:31:23;12.20;99.90
10417;DHT22;62605;49.432;8.680;2023-04-23T03:33:50;12.20;99.90
10417;DHT22;62605;49.432;8.680;2023-04-23T03:36:18;12.20;99.90
10417;DHT22;62605;49.432;8.680;2023-04-23T03:38:47;12.20;99.90
10417;DHT22;62605;49.432;8.680;2023-04-23T03:41:14;12.20;99.90
10417;DHT22;62605;49.432;8.680;2023-04-23T03:43:41;12.20;99.90
10417;DHT22;62605;49.432;8.680;2023-04-23T03:46:09;12.10;99.90
10417;DHT22;62605;49.432;8.680;2023-04-23T03:48:50;12.20;99.90
10417;DHT22;62605;49.432;8.680;2023-04-23T03:51:17;12.20;99.90
10417;DHT22;62605;49.432;8.680;2023-04-23T03:53:46;12.10;99.90
10417;DHT22;62605;49.432;8.680;2023-04-23T03:56:14;12.10;99.90
10417;DHT22;62605;49.432;8.680;2023-04-23T03:58:41;12.10;99.90
10417;DHT22;62605;49.432;8.680;2023-04-23T04:13:35;12.00;99.90
10417;DHT22;62605;49.432;8.680;2023-04-23T04:18:45;11.90;99.90
10417;DHT22;62605;49.432;8.680;2023-04-23T04:19:24;11.80;99.90
10417;DHT22;62605;49.432;8.680;2023-04-23T04:40:54;11.70;99.90
10417;DHT22;62605;49.432;8.680;2023-04-23T04:43:23;11.70;99.90
10417;DHT22;62605;49.432;8.680;2023-04-23T04:45:59;11.70;99.90
10417;DHT22;62605;49.432;8.680;2023-04-23T04:48:27;11.80;99.90
10417;DHT22;62605;49.432;8.680;2023-04-23T04:50:55;11.80;99.90
10417;DHT22;62605;49.432;8.680;2023-04-23T04:53:22;11.70;99.90
10417;DHT22;62605;49.432;8.680;2023-04-23T04:55:55;11.80;99.90
10417;DHT22;62605;49.432;8.680;2023-04-23T04:58:24;11.90;99.90
10417;DHT22;62605;49.432;8.680;2023-04-23T05:00:54;11.80;99.90
10417;DHT22;62605;49.432;8.680;2023-04-23T05:03:22;11.80;99.90
10417;DHT22;62605;49.432;8.680;2023-04-23T05:05:56;11.80;99.90
10417;DHT22;62605;49.432;8.680;2023-04-23T05:08:27;11.90;99.90
10417;DHT22;62605;49.432;8.680;2023-04-23T05:11:21;11.90;99.90
10417;DHT22;62605;49.432;8.680;2023-04-23T05:13:50;11.90;99.90
10417;DHT22;62605;49.432;8.680;2023-04-23T05:16:18;12.00;99.90
10417;DHT22;62605;49.432;8.680;2023-04-23T05:18:53;12.00;99.90
10417;DHT22;62605;49.432;8.680;2023-04-23T05:21:21;12.10;99.90
10417;DHT22;62605;49.432;8.680;2023-04-23T05:23:49;12.00;99.90
10417;DHT22;62605;49.432;8.680;2023-04-23T05:26:16;12.00;99.90
10417;DHT22;62605;49.432;8.680;2023-04-23T05:28:46;12.00;99.90
10417;DHT22;62605;49.432;8.680;2023-04-23T05:31:14;12.00;99.90
10417;DHT22;62605;49.432;8.680;2023-04-23T05:33:47;12.10;99.90
10417;DHT22;62605;49.432;8.680;2023-04-23T05:36:15;12.00;99.90
10417;DHT22;62605;49.432;8.680;2023-04-23T05:38:43;12.00;99.90
10417;DHT22;62605;49.432;8.680;2023-04-23T05:41:12;11.90;99.90
10417;DHT22;62605;49.432;8.680;2023-04-23T05:43:52;11.90;99.90
10417;DHT22;62605;49.432;8.680;2023-04-23T05:46:20;12.00;99.90
10417;DHT22;62605;49.432;8.680;2023-04-23T05:48:48;12.00;99.90
10417;DHT22;62605;49.432;8.680;2023-04-23T05:51:18;12.10;99.90
10417;DHT22;62605;49.432;8.680;2023-04-23T05:53:46;12.20;99.90
10417;DHT22;62605;49.432;8.680;2023-04-23T05:56:15;12.10;99.90
10417;DHT22;62605;49.432;8.680;2023-04-23T05:58:43;12.10;99.90
10417;DHT22;62605;49.432;8.680;2023-04-23T06:01:14;12.30;99.90
10417;DHT22;62605;49.432;8.680;2023-04-23T06:03:41;12.30;99.90
10417;DHT22;62605;49.432;8.680;2023-04-23T06:06:15;12.40;99.90
10417;DHT22;62605;49.432;8.680;2023-04-23T06:08:57;12.30;99.90
10417;DHT22;62605;49.432;8.680;2023-04-23T06:11:27;12.30;99.90
10417;DHT22;62605;49.432;8.680;2023-04-23T06:13:59;12.40;99.90
10417;DHT22;62605;49.432;8.680;2023-04-23T06:16:34;12.30;99.90
10417;DHT22;62605;49.432;8.680;2023-04-23T06:19:16;12.40;99.90
10417;DHT22;62605;49.432;8.680;2023-04-23T06:21:50;12.70;99.90
10417;DHT22;62605;49.432;8.680;2023-04-23T06:24:20;12.60;99.90
10417;DHT22;62605;49.432;8.680;2023-04-23T06:26:52;12.70;99.90
10417;DHT22;62605;49.432;8.680;2023-04-23T06:29:20;12.80;99.90
10417;DHT22;62605;49.432;8.680;2023-04-23T06:31:49;12.70;99.90
10417;DHT22;62605;49.432;8.680;2023-04-23T06:34:18;12.80;99.90
10417;DHT22;62605;49.432;8.680;2023-04-23T06:36:46;12.90;99.90
10417;DHT22;62605;49.432;8.680;2023-04-23T06:44:19;13.00;99.90
10417;DHT22;62605;49.432;8.680;2023-04-23T06:55:33;13.20;99.90
10417;DHT22;62605;49.432;8.680;2023-04-23T06:58:19;13.10;99.90
10417;DHT22;62605;49.432;8.680;2023-04-23T07:00:49;13.00;99.90
10417;DHT22;62605;49.432;8.680;2023-04-23T07:03:26;13.00;99.90
10417;DHT22;62605;49.432;8.680;2023-04-23T07:05:55;13.00;99.90
10417;DHT22;62605;49.432;8.680;2023-04-23T07:08:25;13.30;99.90
10417;DHT22;62605;49.432;8.680;2023-04-23T07:13:36;13.80;99.90
10417;DHT22;62605;49.432;8.680;2023-04-23T07:16:07;14.10;99.90
10417;DHT22;62605;49.432;8.680;2023-04-23T07:18:35;14.10;99.90
10417;DHT22;62605;49.432;8.680;2023-04-23T07:21:05;14.40;99.90
10417;DHT22;62605;49.432;8.680;2023-04-23T07:23:41;14.40;99.90
10417;DHT22;62605;49.432;8.680;2023-04-23T07:26:12;14.30;1.00
10417;DHT22;62605;49.432;8.680;2023-04-23T07:28:56;14.30;1.00
10417;DHT22;62605;49.432;8.680;2023-04-23T07:31:32;14.40;1.00
10417;DHT22;62605;49.432;8.680;2023-04-23T07:34:08;14.40;99.90
10417;DHT22;62605;49.432;8.680;2023-04-23T07:36:36;14.40;1.00
10417;DHT22;62605;49.432;8.680;2023-04-23T07:39:03;14.40;99.90
10417;DHT22;62605;49.432;8.680;2023-04-23T07:41:35;14.50;1.00
10417;DHT22;62605;49.432;8.680;2023-04-23T07:44:06;14.70;99.90
10417;DHT22;62605;49.432;8.680;2023-04-23T07:46:34;14.90;1.00
10417;DHT22;62605;49.432;8.680;2023-04-23T07:49:05;15.40;1.00
10417;DHT22;62605;49.432;8.680;2023-04-23T07:51:49;15.40;1.00
10417;DHT22;62605;49.432;8.680;2023-04-23T07:54:33;15.00;1.00
10417;DHT22;62605;49.432;8.680;2023-04-23T08:14:29;15.10;99.90
10417;DHT22;62605;49.432;8.680;2023-04-23T08:19:49;15.10;88.30
10417;DHT22;62605;49.432;8.680;2023-04-23T08:28:09;15.80;1.00
10417;DHT22;62605;49.432;8.680;2023-04-23T08:30:38;15.90;99.90
10417;DHT22;62605;49.432;8.680;2023-04-23T08:33:09;15.90;99.90
10417;DHT22;62605;49.432;8.680;2023-04-23T08:35:38;15.50;1.00
10417;DHT22;62605;49.432;8.680;2023-04-23T08:38:19;15.30;1.00
10417;DHT22;62605;49.432;8.680;2023-04-23T08:40:49;15.20;1.00
10417;DHT22;62605;49.432;8.680;2023-04-23T08:43:40;15.40;99.90
10417;DHT22;62605;49.432;8.680;2023-04-23T08:46:13;15.70;1.00
10417;DHT22;62605;49.432;8.680;2023-04-23T08:48:55;15.80;99.90
10417;DHT22;62605;49.432;8.680;2023-04-23T08:51:27;16.00;99.90
10417;DHT22;62605;49.432;8.680;2023-04-23T08:53:58;15.90;99.90
10417;DHT22;62605;49.432;8.680;2023-04-23T08:56:43;15.90;99.90
10417;DHT22;62605;49.432;8.680;2023-04-23T08:59:12;16.10;51.80
10417;DHT22;62605;49.432;8.680;2023-04-23T09:05:08;15.70;40.60
10417;DHT22;62605;49.432;8.680;2023-04-23T09:07:50;15.50;59.00
10417;DHT22;62605;49.432;8.680;2023-04-23T09:10:31;15.50;99.90
10417;DHT22;62605;49.432;8.680;2023-04-23T09:13:14;15.50;1.00
10417;DHT22;62605;49.432;8.680;2023-04-23T09:15:58;15.50;1.00
10417;DHT22;62605;49.432;8.680;2023-04-23T09:18:44;15.60;1.00
10417;DHT22;62605;49.432;8.680;2023-04-23T09:21:24;15.80;1.00
10417;DHT22;62605;49.432;8.680;2023-04-23T09:24:08;16.30;1.00
10417;DHT22;62605;49.432;8.680;2023-04-23T09:26:44;16.70;1.00
10417;DHT22;62605;49.432;8.680;2023-04-23T09:29:14;17.00;1.00
10417;DHT22;62605;49.432;8.680;2023-04-23T09:31:45;17.10;1.00
10417;DHT22;62605;49.432;8.680;2023-04-23T09:34:20;17.30;1.00
10417;DHT22;62605;49.432;8.680;2023-04-23T09:37:08;17.40;1.00
10417;DHT22;62605;49.432;8.680;2023-04-23T09:39:36;17.30;1.00
10417;DHT22;62605;49.432;8.680;2023-04-23T09:42:07;16.70;99.90
10417;DHT22;62605;49.432;8.680;2023-04-23T09:44:38;16.70;99.90
10417;DHT22;62605;49.432;8.680;2023-04-23T09:47:06;16.80;99.90
10417;DHT22;62605;49.432;8.680;2023-04-23T09:49:48;16.80;99.90
10417;DHT22;62605;49.432;8.680;2023-04-23T09:52:21;17.00;99.90
10417;DHT22;62605;49.432;8.680;2023-04-23T09:54:49;17.10;99.90
10417;DHT22;62605;49.432;8.680;2023-04-23T09:57:35;17.60;99.90
10417;DHT22;62605;49.432;8.680;2023-04-23T10:00:13;17.30;99.90
10417;DHT22;62605;49.432;8.680;2023-04-23T10:02:46;17.40;99.90
10417;DHT22;62605;49.432;8.680;2023-04-23T10:05:28;17.70;99.90
10417;DHT22;62605;49.432;8.680;2023-04-23T10:08:31;17.90;99.90
10417;DHT22;62605;49.432;8.680;2023-04-23T10:11:16;18.40;99.90
10417;DHT22;62605;49.432;8.680;2023-04-23T10:13:45;18.50;99.90
10417;DHT22;62605;49.432;8.680;2023-04-23T10:16:12;18.40;99.90
10417;DHT22;62605;49.432;8.680;2023-04-23T10:18:40;18.00;99.90
10417;DHT22;62605;49.432;8.680;2023-04-23T10:21:07;18.10;99.90
10417;DHT22;62605;49.432;8.680;2023-04-23T10:23:38;18.10;99.90
10417;DHT22;62605;49.432;8.680;2023-04-23T10:26:07;18.10;99.90
10417;DHT22;62605;49.432;8.680;2023-04-23T10:28:35;17.80;99.90
10417;DHT22;62605;49.432;8.680;2023-04-23T10:31:04;17.80;92.40
10417;DHT22;62605;49.432;8.680;2023-04-23T10:33:32;18.10;91.20
10417;DHT22;62605;49.432;8.680;2023-04-23T10:36:00;17.90;52.10
10417;DHT22;62605;49.432;8.680;2023-04-23T10:38:28;18.20;50.00
10417;DHT22;62605;49.432;8.680;2023-04-23T10:40:57;18.40;78.60
10417;DHT22;62605;49.432;8.680;2023-04-23T10:43:26;18.50;6.10
10417;DHT22;62605;49.432;8.680;2023-04-23T10:45:53;18.40;1.00
10417;DHT22;62605;49.432;8.680;2023-04-23T10:48:21;18.60;3.20
10417;DHT22;62605;49.432;8.680;2023-04-23T10:50:56;19.10;1.00
10417;DHT22;62605;49.432;8.680;2023-04-23T10:53:23;19.20;1.00
10417;DHT22;62605;49.432;8.680;2023-04-23T10:56:04;18.90;1.00
10417;DHT22;62605;49.432;8.680;2023-04-23T10:58:46;19.00;1.00
10417;DHT22;62605;49.432;8.680;2023-04-23T11:01:16;18.90;1.00
10417;DHT22;62605;49.432;8.680;2023-04-23T11:03:43;18.50;1.00
10417;DHT22;62605;49.432;8.680;2023-04-23T11:06:13;18.40;1.00
10417;DHT22;62605;49.432;8.680;2023-04-23T11:08:52;18.40;1.00
10417;DHT22;62605;49.432;8.680;2023-04-23T11:11:38;18.50;1.00
10417;DHT22;62605;49.432;8.680;2023-04-23T11:14:10;18.70;1.00
10417;DHT22;62605;49.432;8.680;2023-04-23T11:16:40;18.90;1.00
10417;DHT22;62605;49.432;8.680;2023-04-23T11:19:08;19.10;1.00
10417;DHT22;62605;49.432;8.680;2023-04-23T11:21:59;19.10;1.00
10417;DHT22;62605;49.432;8.680;2023-04-23T11:24:28;19.40;1.00
10417;DHT22;62605;49.432;8.680;2023-04-23T11:26:59;19.80;1.00
10417;DHT22;62605;49.432;8.680;2023-04-23T11:29:28;19.90;1.00
10417;DHT22;62605;49.432;8.680;2023-04-23T11:31:55;19.50;1.00
10417;DHT22;62605;49.432;8.680;2023-04-23T11:34:23;19.50;1.00
10417;DHT22;62605;49.432;8.680;2023-04-23T11:36:53;19.20;1.00
10417;DHT22;62605;49.432;8.680;2023-04-23T11:39:21;19.10;1.00
10417;DHT22;62605;49.432;8.680;2023-04-23T11:41:50;19.60;1.00
10417;DHT22;62605;49.432;8.680;2023-04-23T11:44:20;20.10;1.00
10417;DHT22;62605;49.432;8.680;2023-04-23T11:46:48;20.30;1.00
10417;DHT22;62605;49.432;8.680;2023-04-23T11:49:16;20.00;1.00
10417;DHT22;62605;49.432;8.680;2023-04-23T11:51:45;19.50;1.00
10417;DHT22;62605;49.432;8.680;2023-04-23T11:54:13;19.80;1.00
10417;DHT22;62605;49.432;8.680;2023-04-23T11:56:41;19.70;1.00
10417;DHT22;62605;49.432;8.680;2023-04-23T11:59:08;19.00;1.00
10417;DHT22;62605;49.432;8.680;2023-04-23T12:01:42;19.00;1.00
10417;DHT22;62605;49.432;8.680;2023-04-23T12:04:14;19.50;1.00
10417;DHT22;62605;49.432;8.680;2023-04-23T12:06:44;19.80;1.00
10417;DHT22;62605;49.432;8.680;2023-04-23T12:09:12;20.30;1.00
10417;DHT22;62605;49.432;8.680;2023-04-23T12:11:40;20.70;1.00
10417;DHT22;62605;49.432;8.680;2023-04-23T12:14:08;19.80;1.00
10417;DHT22;62605;49.432;8.680;2023-04-23T12:16:38;19.30;1.00
10417;DHT22;62605;49.432;8.680;2023-04-23T12:19:12;19.50;1.00
10417;DHT22;62605;49.432;8.680;2023-04-23T12:21:49;20.10;1.00
10417;DHT22;62605;49.432;8.680;2023-04-23T12:24:20;19.90;1.00
10417;DHT22;62605;49.432;8.680;2023-04-23T12:26:51;19.60;99.90
10417;DHT22;62605;49.432;8.680;2023-04-23T12:29:21;20.00;99.90
10417;DHT22;62605;49.432;8.680;2023-04-23T12:31:49;20.10;99.90
10417;DHT22;62605;49.432;8.680;2023-04-23T12:34:19;20.00;99.90
10417;DHT22;62605;49.432;8.680;2023-04-23T12:36:47;20.00;99.90
10417;DHT22;62605;49.432;8.680;2023-04-23T12:39:33;20.00;99.90
10417;DHT22;62605;49.432;8.680;2023-04-23T12:42:02;20.10;99.90
10417;DHT22;62605;49.432;8.680;2023-04-23T12:44:31;20.50;99.90
10417;DHT22;62605;49.432;8.680;2023-04-23T12:47:01;20.70;99.90
10417;DHT22;62605;49.432;8.680;2023-04-23T12:49:31;20.50;99.90
10417;DHT22;62605;49.432;8.680;2023-04-23T12:52:00;20.20;99.90
10417;DHT22;62605;49.432;8.680;2023-04-23T12:54:28;19.80;99.90
10417;DHT22;62605;49.432;8.680;2023-04-23T12:56:56;19.90;99.90
10417;DHT22;62605;49.432;8.680;2023-04-23T12:59:23;20.30;99.90
10417;DHT22;62605;49.432;8.680;2023-04-23T13:01:50;20.80;99.90
10417;DHT22;62605;49.432;8.680;2023-04-23T13:04:17;21.10;99.90
10417;DHT22;62605;49.432;8.680;2023-04-23T13:06:46;20.40;99.90
10417;DHT22;62605;49.432;8.680;2023-04-23T13:09:14;20.40;99.90
10417;DHT22;62605;49.432;8.680;2023-04-23T13:11:41;20.20;99.90
10417;DHT22;62605;49.432;8.680;2023-04-23T13:14:08;20.90;99.90
10417;DHT22;62605;49.432;8.680;2023-04-23T13:16:35;21.20;99.90
10417;DHT22;62605;49.432;8.680;2023-04-23T13:19:03;21.40;99.90
10417;DHT22;62605;49.432;8.680;2023-04-23T13:21:31;21.40;99.90
10417;DHT22;62605;49.432;8.680;2023-04-23T13:23:59;21.50;99.90
10417;DHT22;62605;49.432;8.680;2023-04-23T13:26:27;21.50;99.90
10417;DHT22;62605;49.432;8.680;2023-04-23T13:28:56;21.20;99.90
10417;DHT22;62605;49.432;8.680;2023-04-23T13:31:23;20.60;99.90
10417;DHT22;62605;49.432;8.680;2023-04-23T13:33:51;20.40;99.90
10417;DHT22;62605;49.432;8.680;2023-04-23T13:36:19;20.40;99.90
10417;DHT22;62605;49.432;8.680;2023-04-23T13:38:46;20.00;99.90
10417;DHT22;62605;49.432;8.680;2023-04-23T13:41:15;20.10;99.90
10417;DHT22;62605;49.432;8.680;2023-04-23T13:43:41;20.20;99.90
10417;DHT22;62605;49.432;8.680;2023-04-23T13:46:08;20.40;99.90
10417;DHT22;62605;49.432;8.680;2023-04-23T13:48:36;20.20;99.90
10417;DHT22;62605;49.432;8.680;2023-04-23T13:51:03;20.10;99.90
10417;DHT22;62605;49.432;8.680;2023-04-23T13:53:30;20.20;99.90
10417;DHT22;62605;49.432;8.680;2023-04-23T13:55:58;20.40;99.90
10417;DHT22;62605;49.432;8.680;2023-04-23T13:58:27;20.30;99.90
10417;DHT22;62605;49.432;8.680;2023-04-23T14:00:54;20.60;99.90
10417;DHT22;62605;49.432;8.680;2023-04-23T14:03:21;20.90;99.90
10417;DHT22;62605;49.432;8.680;2023-04-23T14:05:48;20.50;99.90
10417;DHT22;62605;49.432;8.680;2023-04-23T14:08:15;20.70;99.90
10417;DHT22;62605;49.432;8.680;2023-04-23T14:10:43;21.10;99.90
10417;DHT22;62605;49.432;8.680;2023-04-23T14:13:10;21.30;99.90
10417;DHT22;62605;49.432;8.680;2023-04-23T14:15:38;21.10;99.90
10417;DHT22;62605;49.432;8.680;2023-04-23T14:18:07;21.20;99.90
10417;DHT22;62605;49.432;8.680;2023-04-23T14:20:35;21.20;99.90
10417;DHT22;62605;49.432;8.680;2023-04-23T14:23:09;20.80;99.90
10417;DHT22;62605;49.432;8.680;2023-04-23T14:25:40;20.50;99.90
10417;DHT22;62605;49.432;8.680;2023-04-23T14:28:23;20.20;99.90
10417;DHT22;62605;49.432;8.680;2023-04-23T14:30:56;20.40;99.90
10417;DHT22;62605;49.432;8.680;2023-04-23T14:33:23;20.60;99.90
10417;DHT22;62605;49.432;8.680;2023-04-23T14:35:50;20.80;99.90
10417;DHT22;62605;49.432;8.680;2023-04-23T14:38:18;20.80;99.90
10417;DHT22;62605;49.432;8.680;2023-04-23T14:40:46;20.80;99.90
10417;DHT22;62605;49.432;8.680;2023-04-23T14:43:15;20.80;99.90
10417;DHT22;62605;49.432;8.680;2023-04-23T14:45:42;20.70;99.90
10417;DHT22;62605;49.432;8.680;2023-04-23T14:48:14;20.60;99.90
10417;DHT22;62605;49.432;8.680;2023-04-23T14:50:41;20.40;99.90
10417;DHT22;62605;49.432;8.680;2023-04-23T14:53:09;20.50;99.90
10417;DHT22;62605;49.432;8.680;2023-04-23T14:55:36;20.60;99.90
10417;DHT22;62605;49.432;8.680;2023-04-23T14:58:17;20.40;99.90
10417;DHT22;62605;49.432;8.680;2023-04-23T15:00:49;20.50;99.90
10417;DHT22;62605;49.432;8.680;2023-04-23T15:03:21;20.40;99.90
10417;DHT22;62605;49.432;8.680;2023-04-23T15:05:54;20.40;99.90
10417;DHT22;62605;49.432;8.680;2023-04-23T15:08:21;20.20;99.90
10417;DHT22;62605;49.432;8.680;2023-04-23T15:10:49;20.20;99.90
10417;DHT22;62605;49.432;8.680;2023-04-23T15:13:35;20.20;99.90
10417;DHT22;62605;49.432;8.680;2023-04-23T15:16:07;20.10;99.90
10417;DHT22;62605;49.432;8.680;2023-04-23T15:18:37;19.80;99.90
10417;DHT22;62605;49.432;8.680;2023-04-23T15:21:04;19.90;99.90
10417;DHT22;62605;49.432;8.680;2023-04-23T15:23:31;19.70;99.90
10417;DHT22;62605;49.432;8.680;2023-04-23T15:25:59;19.70;99.90
10417;DHT22;62605;49.432;8.680;2023-04-23T15:28:27;19.50;99.90
10417;DHT22;62605;49.432;8.680;2023-04-23T15:30:54;19.70;99.90
10417;DHT22;62605;49.432;8.680;2023-04-23T15:33:22;19.60;99.90
10417;DHT22;62605;49.432;8.680;2023-04-23T15:35:50;19.50;99.90
10417;DHT22;62605;49.432;8.680;2023-04-23T15:38:18;19.30;99.90
10417;DHT22;62605;49.432;8.680;2023-04-23T15:40:45;19.40;99.90
10417;DHT22;62605;49.432;8.680;2023-04-23T15:43:15;19.20;99.90
10417;DHT22;62605;49.432;8.680;2023-04-23T15:45:43;19.00;99.90
10417;DHT22;62605;49.432;8.680;2023-04-23T15:48:13;19.00;99.90
10417;DHT22;62605;49.432;8.680;2023-04-23T15:50:41;18.90;99.90
10417;DHT22;62605;49.432;8.680;2023-04-23T15:53:10;18.80;99.90
10417;DHT22;62605;49.432;8.680;2023-04-23T15:55:38;18.90;99.90
10417;DHT22;62605;49.432;8.680;2023-04-23T15:58:07;19.10;99.90
10417;DHT22;62605;49.432;8.680;2023-04-23T16:00:35;19.10;99.90
10417;DHT22;62605;49.432;8.680;2023-04-23T16:03:03;19.10;99.90
10417;DHT22;62605;49.432;8.680;2023-04-23T16:05:33;19.00;99.90
10417;DHT22;62605;49.432;8.680;2023-04-23T16:08:03;18.90;99.90
10417;DHT22;62605;49.432;8.680;2023-04-23T16:10:33;18.70;99.90
10417;DHT22;62605;49.432;8.680;2023-04-23T16:13:05;18.50;99.90
10417;DHT22;62605;49.432;8.680;2023-04-23T16:15:34;18.20;99.90
10417;DHT22;62605;49.432;8.680;2023-04-23T16:18:03;18.00;99.90
10417;DHT22;62605;49.432;8.680;2023-04-23T16:20:32;17.90;99.90
10417;DHT22;62605;49.432;8.680;2023-04-23T16:23:01;17.70;99.90
10417;DHT22;62605;49.432;8.680;2023-04-23T16:25:30;16.90;99.90
10417;DHT22;62605;49.432;8.680;2023-04-23T16:27:59;15.60;99.90
10417;DHT22;62605;49.432;8.680;2023-04-23T16:30:27;14.70;89.50
10417;DHT22;62605;49.432;8.680;2023-04-23T16:32:54;14.30;99.90
10417;DHT22;62605;49.432;8.680;2023-04-23T16:35:21;14.10;1.00
10417;DHT22;62605;49.432;8.680;2023-04-23T16:37:49;14.10;99.90
10417;DHT22;62605;49.432;8.680;2023-04-23T16:40:17;14.00;1.00
10417;DHT22;62605;49.432;8.680;2023-04-23T16:42:44;13.90;1.00
10417;DHT22;62605;49.432;8.680;2023-04-23T16:45:14;13.80;99.90
10417;DHT22;62605;49.432;8.680;2023-04-23T16:47:47;13.80;1.00
10417;DHT22;62605;49.432;8.680;2023-04-23T16:50:14;13.70;1.00
10417;DHT22;62605;49.432;8.680;2023-04-23T16:52:42;13.80;24.40
10417;DHT22;62605;49.432;8.680;2023-04-23T16:55:09;13.70;58.50
10417;DHT22;62605;49.432;8.680;2023-04-23T16:57:40;13.50;99.90
10417;DHT22;62605;49.432;8.680;2023-04-23T17:00:11;13.60;1.00
10417;DHT22;62605;49.432;8.680;2023-04-23T17:02:41;13.70;1.00
10417;DHT22;62605;49.432;8.680;2023-04-23T17:05:09;13.60;1.00
10417;DHT22;62605;49.432;8.680;2023-04-23T17:07:36;13.60;1.00
10417;DHT22;62605;49.432;8.680;2023-04-23T17:10:06;13.60;1.00
10417;DHT22;62605;49.432;8.680;2023-04-23T17:12:34;13.60;99.90
10417;DHT22;62605;49.432;8.680;2023-04-23T17:15:03;13.50;99.90
10417;DHT22;62605;49.432;8.680;2023-04-23T17:17:31;13.60;1.00